MEX weather

Licenciado Benito Juarez International Airport
Mexico City, Ciudad de México, Mexico

Public forecast

Using degrees Celsius for public forecast. Weather courtesy of forecast.io.

Current aviation weather report (METAR) for Licenciado Benito Juarez International Airport

Retrieved 2020/07/12 21:53 UTC (52 minutes ago):

MMMX 122153Z 18008KT 10SM SCT020TCU SCT080 26/08 A3025 NOSIG RMK 8/230 HZY DSNT CB N NE

Aviation forecast (TAF) for Licenciado Benito Juarez International Airport

Retrieved 2020/07/12 18:18 UTC (4 hours ago):

TAF MMMX 121616Z 1218/1324 12008KT P6SM SCT020 SCT220 TX26/1221Z TN13/1312Z BECMG 1220/1221 13012KT TEMPO 1223/1303 5SM TSRA BKN020CB BKN250 FM130300 04005KT P6SM SCT020 BKN250 BECMG 1320/1321 13010KT BKN020 PROB40 1322/1324 6SM -TSRA BKN020CB